Time;durP1;ratioP1;P1;durP2;ratioP2;P2;SDS_P1;SDS_P2;PMS_P1;PMS_P2;Temp;Humidity;BMP_temperature;BMP_pressure;BME280_temperature;BME280_humidity;BME280_pressure;Samples;Min_cycle;Max_cycle;Signal;HPM_P1;HPM_P2
2023/12/23 00:02:08;;;;;;;118.25;112.15;;;11.60;99.90;;;;;;5030560;28;20029;-72
2023/12/23 00:04:34;;;;;;;88.80;84.18;;;11.50;99.90;;;;;;5031262;28;20049;-72
2023/12/23 00:07:00;;;;;;;87.72;83.07;;;11.60;99.90;;;;;;5030253;28;20048;-72
2023/12/23 00:09:27;;;;;;;79.10;74.82;;;11.60;99.90;;;;;;5032645;28;20048;-72
2023/12/23 00:11:54;;;;;;;96.75;91.53;;;11.60;99.90;;;;;;5031600;28;20425;-72
2023/12/23 00:14:20;;;;;;;91.15;86.35;;;11.60;99.90;;;;;;5031920;28;20036;-72
2023/12/23 00:16:47;;;;;;;130.10;123.30;;;11.50;99.90;;;;;;5031603;28;20053;-72
2023/12/23 00:19:13;;;;;;;144.55;136.93;;;11.50;99.90;;;;;;5014384;28;20037;-73
2023/12/23 00:21:39;;;;;;;136.45;129.10;;;11.50;99.90;;;;;;5030796;28;20060;-73
2023/12/23 00:24:05;;;;;;;128.27;121.60;;;11.40;99.90;;;;;;5032450;28;20025;-72
2023/12/23 00:26:31;;;;;;;128.80;121.97;;;11.40;99.90;;;;;;5030227;28;20056;-72
2023/12/23 00:28:57;;;;;;;136.02;128.75;;;11.50;99.90;;;;;;5031685;28;20033;-72
2023/12/23 00:31:23;;;;;;;114.78;108.57;;;11.50;99.90;;;;;;5010142;28;20049;-72
2023/12/23 00:33:50;;;;;;;141.00;133.52;;;11.50;99.90;;;;;;5022120;28;20037;-72
2023/12/23 00:36:16;;;;;;;111.00;105.15;;;11.60;99.90;;;;;;5030116;28;20033;-72
2023/12/23 00:38:42;;;;;;;107.30;101.35;;;11.50;99.90;;;;;;5030741;28;20045;-72
2023/12/23 00:41:08;;;;;;;113.15;107.28;;;11.50;99.90;;;;;;5031792;28;20040;-72
2023/12/23 00:43:34;;;;;;;104.30;98.82;;;11.50;99.90;;;;;;5030308;28;20482;-72
2023/12/23 00:46:00;;;;;;;106.75;101.32;;;11.50;99.90;;;;;;5029644;28;20045;-72
2023/12/23 00:48:26;;;;;;;118.00;112.03;;;11.40;99.90;;;;;;5031806;28;20451;-72
2023/12/23 00:50:52;;;;;;;104.55;99.00;;;11.50;99.90;;;;;;5031051;28;20045;-72
2023/12/23 00:53:18;;;;;;;112.35;106.53;;;11.50;99.90;;;;;;5030696;28;20643;-73
2023/12/23 00:55:44;;;;;;;106.22;100.63;;;11.40;99.90;;;;;;5031220;28;20033;-72
2023/12/23 00:58:10;;;;;;;97.22;91.82;;;11.50;99.90;;;;;;5031809;28;20375;-73
2023/12/23 01:00:38;;;;;;;103.85;98.22;;;11.50;99.90;;;;;;5029580;28;20026;-72
2023/12/23 01:03:04;;;;;;;110.57;104.53;;;11.50;99.90;;;;;;5031266;28;20391;-72
2023/12/23 01:05:30;;;;;;;100.55;95.10;;;11.40;99.90;;;;;;5030919;28;20049;-72
2023/12/23 01:07:56;;;;;;;100.97;95.60;;;11.50;99.90;;;;;;5031622;28;20030;-73
2023/12/23 01:10:25;;;;;;;102.90;97.50;;;11.50;99.90;;;;;;5031260;28;20032;-72
2023/12/23 01:12:51;;;;;;;103.05;97.55;;;11.50;99.90;;;;;;5031456;28;20049;-72
2023/12/23 01:15:17;;;;;;;119.90;113.68;;;11.60;99.90;;;;;;5030886;28;20033;-72
2023/12/23 01:17:44;;;;;;;100.22;94.78;;;11.60;99.90;;;;;;5029543;28;20040;-72
2023/12/23 01:20:11;;;;;;;93.80;88.80;;;11.60;99.90;;;;;;5031241;28;20045;-72
2023/12/23 01:22:37;;;;;;;82.80;78.20;;;11.60;99.90;;;;;;5012545;28;20493;-72
2023/12/23 01:25:03;;;;;;;84.30;79.63;;;11.70;99.90;;;;;;5014197;28;20030;-72
2023/12/23 01:27:29;;;;;;;83.40;78.93;;;11.70;99.90;;;;;;5013379;28;20053;-73
2023/12/23 01:29:56;;;;;;;80.55;76.05;;;11.60;99.90;;;;;;5015531;28;20037;-72
2023/12/23 01:32:22;;;;;;;89.57;84.88;;;11.60;99.90;;;;;;5033201;28;20045;-72
2023/12/23 01:34:48;;;;;;;85.57;81.03;;;11.60;99.90;;;;;;5033961;28;20377;-73
2023/12/23 01:37:14;;;;;;;86.90;82.05;;;11.60;99.90;;;;;;5034462;28;20028;-73
2023/12/23 01:39:40;;;;;;;81.60;77.28;;;11.60;99.90;;;;;;5035075;28;20386;-73
2023/12/23 01:42:06;;;;;;;79.18;74.82;;;11.60;99.90;;;;;;5032610;28;20405;-72
2023/12/23 01:44:32;;;;;;;78.65;74.57;;;11.60;99.90;;;;;;5034858;28;20034;-72
2023/12/23 01:46:59;;;;;;;93.60;88.65;;;11.60;99.90;;;;;;5033817;28;20029;-71
2023/12/23 01:49:25;;;;;;;98.22;93.13;;;11.60;99.90;;;;;;5034069;28;20037;-73
2023/12/23 01:51:51;;;;;;;69.85;66.30;;;11.60;99.90;;;;;;5033321;28;20409;-72
2023/12/23 01:54:18;;;;;;;73.47;69.50;;;11.50;99.90;;;;;;5033113;28;20379;-72
2023/12/23 01:56:44;;;;;;;75.05;71.15;;;11.50;99.90;;;;;;5033462;28;20060;-73
2023/12/23 01:59:10;;;;;;;73.68;69.68;;;11.50;99.90;;;;;;5033139;28;20096;-72
2023/12/23 02:01:36;;;;;;;92.25;87.57;;;11.50;99.90;;;;;;5032492;28;20037;-73
2023/12/23 02:04:02;;;;;;;82.70;78.25;;;11.50;99.90;;;;;;5033314;28;20037;-73
2023/12/23 02:06:28;;;;;;;81.55;77.32;;;11.50;99.90;;;;;;5015417;28;20050;-72
2023/12/23 02:08:55;;;;;;;75.25;71.40;;;11.40;99.90;;;;;;5034180;28;20029;-72
2023/12/23 02:11:50;;;;;;;67.85;64.20;;;11.40;99.90;;;;;;5032685;28;20040;-72
2023/12/23 02:14:28;;;;;;;81.00;76.72;;;11.40;99.90;;;;;;4973098;28;20388;-72
2023/12/23 02:16:54;;;;;;;88.63;83.88;;;11.40;99.90;;;;;;4936427;28;20516;-72
2023/12/23 02:19:20;;;;;;;99.40;93.93;;;11.40;99.90;;;;;;4957262;28;20046;-72
2023/12/23 02:21:46;;;;;;;91.05;86.43;;;11.50;99.90;;;;;;4972904;28;20074;-73
2023/12/23 02:24:12;;;;;;;87.47;82.80;;;11.50;99.90;;;;;;4956204;28;20039;-72
2023/12/23 02:26:38;;;;;;;87.90;82.90;;;11.50;99.90;;;;;;4969263;28;20039;-72
2023/12/23 02:29:04;;;;;;;80.22;75.90;;;11.50;99.90;;;;;;4972768;28;20511;-73
2023/12/23 02:31:31;;;;;;;87.85;83.22;;;11.50;99.90;;;;;;4955865;28;20058;-72
2023/12/23 02:33:59;;;;;;;86.75;82.20;;;11.50;99.90;;;;;;4972452;28;20039;-72
2023/12/23 02:36:25;;;;;;;87.82;83.20;;;11.50;99.90;;;;;;4955001;28;20050;-72
2023/12/23 02:38:51;;;;;;;98.28;92.82;;;11.50;99.90;;;;;;4972672;28;20050;-72
2023/12/23 02:41:17;;;;;;;98.72;93.45;;;11.40;99.90;;;;;;4953109;29;20042;-72
2023/12/23 02:43:43;;;;;;;119.30;112.95;;;11.40;99.90;;;;;;4952845;29;20456;-72
2023/12/23 02:46:09;;;;;;;105.38;99.97;;;11.40;99.90;;;;;;4954290;28;20051;-73
2023/12/23 02:48:35;;;;;;;94.60;89.63;;;11.40;99.90;;;;;;4970967;28;20506;-72
2023/12/23 02:51:02;;;;;;;94.80;89.80;;;11.40;99.90;;;;;;4985122;28;20041;-72
2023/12/23 02:53:28;;;;;;;124.75;118.38;;;11.30;99.90;;;;;;5033905;28;20030;-72
2023/12/23 02:55:54;;;;;;;126.70;120.18;;;11.30;99.90;;;;;;5033035;28;20041;-72
2023/12/23 02:58:20;;;;;;;150.70;142.82;;;11.30;99.90;;;;;;5033505;28;20041;-72
2023/12/23 03:00:46;;;;;;;110.95;105.03;;;11.20;99.90;;;;;;5032544;28;20052;-72
2023/12/23 03:03:12;;;;;;;142.27;134.93;;;11.20;99.90;;;;;;5033497;28;20048;-72
2023/12/23 03:05:38;;;;;;;122.47;116.13;;;11.20;99.90;;;;;;5031591;28;20049;-72
2023/12/23 03:08:05;;;;;;;99.13;93.80;;;11.30;99.90;;;;;;5032637;28;20037;-72
2023/12/23 03:10:31;;;;;;;106.85;101.38;;;11.30;99.90;;;;;;5032760;28;20029;-72
2023/12/23 03:12:57;;;;;;;118.05;111.80;;;11.30;99.90;;;;;;5032964;28;20382;-72
2023/12/23 03:15:23;;;;;;;104.53;98.95;;;11.20;99.90;;;;;;5032401;28;20044;-72
2023/12/23 03:17:49;;;;;;;115.57;109.57;;;11.30;99.90;;;;;;5032991;28;20474;-72
2023/12/23 03:20:15;;;;;;;125.97;119.38;;;11.20;99.90;;;;;;5031363;28;20045;-72
2023/12/23 03:22:41;;;;;;;133.90;126.93;;;11.20;99.90;;;;;;5032768;28;20034;-72
2023/12/23 03:25:07;;;;;;;152.57;144.57;;;11.20;99.90;;;;;;5031803;28;20036;-73
2023/12/23 03:27:36;;;;;;;171.98;163.02;;;11.20;99.90;;;;;;5031059;28;20482;-72
2023/12/23 03:30:02;;;;;;;120.65;114.35;;;11.20;99.90;;;;;;5026072;28;20021;-72
2023/12/23 03:32:28;;;;;;;205.77;194.57;;;11.20;99.90;;;;;;5030602;28;20048;-71
2023/12/23 03:34:54;;;;;;;217.13;205.70;;;11.20;99.90;;;;;;5032913;28;20466;-72
2023/12/23 03:37:20;;;;;;;229.75;217.48;;;11.20;99.90;;;;;;5030375;28;20033;-72
2023/12/23 03:39:46;;;;;;;205.55;194.63;;;11.20;99.90;;;;;;5031702;28;20056;-72
2023/12/23 03:42:13;;;;;;;199.13;188.52;;;11.20;99.90;;;;;;5031816;28;20462;-71
2023/12/23 03:44:39;;;;;;;247.05;233.25;;;11.20;99.90;;;;;;5032200;28;20032;-72
2023/12/23 03:47:05;;;;;;;220.25;207.88;;;11.20;99.90;;;;;;5030741;28;20049;-72
2023/12/23 03:49:31;;;;;;;204.85;194.05;;;11.20;99.90;;;;;;5031584;28;20466;-72
2023/12/23 03:51:57;;;;;;;186.75;176.80;;;11.20;99.90;;;;;;5016036;28;20057;-72
2023/12/23 03:54:23;;;;;;;213.40;201.85;;;11.20;99.90;;;;;;5012874;28;20382;-72
2023/12/23 03:56:49;;;;;;;248.20;234.52;;;11.20;99.90;;;;;;5026004;28;20063;-72
2023/12/23 03:59:16;;;;;;;230.80;218.30;;;11.20;99.90;;;;;;5032453;28;20052;-72
2023/12/23 04:01:43;;;;;;;262.80;247.98;;;11.20;99.90;;;;;;5029734;28;20037;-72
2023/12/23 04:04:09;;;;;;;243.30;229.93;;;11.20;99.90;;;;;;5031378;28;20033;-72
2023/12/23 04:06:35;;;;;;;212.57;200.85;;;11.20;99.90;;;;;;5031580;28;20046;-72
2023/12/23 04:09:03;;;;;;;215.52;203.23;;;11.20;99.90;;;;;;5032316;28;20045;-72
2023/12/23 04:11:29;;;;;;;258.00;243.68;;;11.20;99.90;;;;;;5031070;28;20037;-72
2023/12/23 04:13:55;;;;;;;197.23;185.93;;;11.20;99.90;;;;;;5031885;28;20044;-72
2023/12/23 04:16:21;;;;;;;229.00;215.88;;;11.30;99.90;;;;;;5029212;28;20612;-69
2023/12/23 04:18:47;;;;;;;266.83;251.68;;;11.30;99.90;;;;;;5031711;28;20394;-68
2023/12/23 04:21:13;;;;;;;267.23;251.77;;;11.20;99.90;;;;;;5030390;28;20037;-68
2023/12/23 04:23:39;;;;;;;227.27;214.45;;;11.20;99.90;;;;;;5041736;28;20037;-69
2023/12/23 04:26:06;;;;;;;246.57;232.77;;;11.30;99.90;;;;;;5031563;28;20045;-69
2023/12/23 04:28:33;;;;;;;231.15;218.32;;;11.20;99.90;;;;;;5031828;28;20029;-69
2023/12/23 04:30:59;;;;;;;232.02;219.25;;;11.30;99.90;;;;;;5031212;28;20040;-69
2023/12/23 04:33:25;;;;;;;225.05;212.10;;;11.30;99.90;;;;;;5021615;28;20030;-69
2023/12/23 04:35:51;;;;;;;212.68;200.77;;;11.20;99.90;;;;;;4996273;28;20041;-69
2023/12/23 04:38:17;;;;;;;208.50;197.05;;;11.30;99.90;;;;;;5010569;28;20049;-69
2023/12/23 04:40:43;;;;;;;265.52;250.13;;;11.20;99.90;;;;;;5027926;28;20359;-70
2023/12/23 04:43:09;;;;;;;253.15;239.32;;;11.20;99.90;;;;;;5031902;28;20462;-69
2023/12/23 04:45:35;;;;;;;270.55;255.70;;;11.20;99.90;;;;;;5030968;28;20032;-69
2023/12/23 04:48:02;;;;;;;244.13;230.52;;;11.20;99.90;;;;;;5031968;28;20485;-69
2023/12/23 04:50:28;;;;;;;218.07;205.75;;;11.20;99.90;;;;;;5031442;28;20032;-69
2023/12/23 04:52:54;;;;;;;244.60;230.77;;;11.20;99.90;;;;;;5030545;28;20034;-69
2023/12/23 04:55:20;;;;;;;271.27;255.82;;;11.20;99.90;;;;;;5031016;28;20033;-69
2023/12/23 04:57:48;;;;;;;256.67;242.15;;;11.10;99.90;;;;;;5033082;28;20029;-69
2023/12/23 05:00:15;;;;;;;267.38;252.48;;;11.20;99.90;;;;;;5034283;28;20490;-69
2023/12/23 05:02:41;;;;;;;241.48;228.23;;;11.20;99.90;;;;;;5035326;28;20033;-69
2023/12/23 05:05:07;;;;;;;279.15;263.40;;;11.20;99.90;;;;;;5033343;28;20036;-69
2023/12/23 05:07:33;;;;;;;258.55;244.30;;;11.20;99.90;;;;;;5035582;28;20044;-69
2023/12/23 05:09:59;;;;;;;196.00;185.07;;;11.20;99.90;;;;;;5035150;28;20387;-69
2023/12/23 05:12:25;;;;;;;258.55;244.48;;;11.20;99.90;;;;;;5034035;28;20029;-69
2023/12/23 05:14:51;;;;;;;233.98;221.10;;;11.10;99.90;;;;;;5035495;28;20030;-69
2023/12/23 05:17:18;;;;;;;233.05;220.30;;;11.10;99.90;;;;;;5034242;28;20033;-71
2023/12/23 05:19:44;;;;;;;222.90;210.75;;;11.20;99.90;;;;;;5030430;28;20041;-72
2023/12/23 05:22:10;;;;;;;239.30;221.55;;;11.10;99.90;;;;;;5034378;28;20044;-72
2023/12/23 05:24:37;;;;;;;245.05;230.25;;;11.10;99.90;;;;;;5035317;28;20033;-72
2023/12/23 05:27:04;;;;;;;173.85;164.40;;;11.10;99.90;;;;;;5017258;28;20037;-72
2023/12/23 05:29:31;;;;;;;218.38;205.95;;;11.10;99.90;;;;;;5035326;28;20466;-71
2023/12/23 05:31:57;;;;;;;182.57;172.15;;;11.10;99.90;;;;;;5031936;28;20033;-72
2023/12/23 05:34:23;;;;;;;226.23;213.50;;;11.10;99.90;;;;;;5034736;28;20030;-72
2023/12/23 05:36:49;;;;;;;243.85;230.35;;;11.10;99.90;;;;;;5034288;28;20038;-72
2023/12/23 05:39:16;;;;;;;219.93;207.02;;;11.10;99.90;;;;;;5035127;28;20032;-72
2023/12/23 05:41:42;;;;;;;258.88;244.30;;;11.10;99.90;;;;;;5039834;28;20505;-72
2023/12/23 05:44:08;;;;;;;243.38;230.07;;;11.10;99.90;;;;;;5043739;28;20029;-72
2023/12/23 05:46:34;;;;;;;243.73;224.43;;;11.20;99.90;;;;;;5043092;28;20037;-72
2023/12/23 05:49:00;;;;;;;230.18;205.15;;;11.20;99.90;;;;;;5027196;28;20044;-72
2023/12/23 05:51:26;;;;;;;233.00;219.75;;;11.20;99.90;;;;;;5043363;28;20029;-72
2023/12/23 05:53:52;;;;;;;255.55;241.38;;;11.20;99.90;;;;;;5042710;28;20028;-73
2023/12/23 05:56:19;;;;;;;227.70;215.13;;;11.20;99.90;;;;;;5044899;28;20025;-73
2023/12/23 05:58:45;;;;;;;222.45;210.20;;;11.20;99.90;;;;;;5045709;28;20421;-73
2023/12/23 06:01:11;;;;;;;212.30;200.38;;;11.20;99.90;;;;;;5034326;28;20186;-69
2023/12/23 06:03:37;;;;;;;230.52;217.73;;;11.20;99.90;;;;;;5033384;28;20401;-73
2023/12/23 06:06:04;;;;;;;239.40;219.57;;;11.20;99.90;;;;;;5033142;28;20053;-74
2023/12/23 06:08:31;;;;;;;180.30;170.45;;;11.20;99.90;;;;;;5032895;28;20045;-74
2023/12/23 06:10:57;;;;;;;223.77;211.52;;;11.20;99.90;;;;;;5037935;28;20032;-74
2023/12/23 06:13:23;;;;;;;205.18;193.88;;;11.20;99.90;;;;;;5052673;28;20028;-74
2023/12/23 06:15:49;;;;;;;226.07;213.32;;;11.20;99.90;;;;;;5045803;28;20044;-72
2023/12/23 06:18:15;;;;;;;205.35;191.32;;;11.20;99.90;;;;;;5031976;28;20025;-71
2023/12/23 06:20:41;;;;;;;217.70;205.55;;;11.20;99.90;;;;;;5031233;28;20041;-71
2023/12/23 06:23:07;;;;;;;210.82;198.60;;;11.20;99.90;;;;;;5034332;28;20029;-72
2023/12/23 06:25:34;;;;;;;256.50;242.63;;;11.20;99.90;;;;;;5033914;28;20021;-72
2023/12/23 06:28:00;;;;;;;211.85;200.10;;;11.20;99.90;;;;;;5034347;28;20034;-72
2023/12/23 06:30:26;;;;;;;204.18;193.10;;;11.30;99.90;;;;;;5032425;28;20052;-72
2023/12/23 06:32:52;;;;;;;203.88;193.05;;;11.30;99.90;;;;;;5033925;28;20026;-72
2023/12/23 06:35:18;;;;;;;208.40;196.98;;;11.30;99.90;;;;;;5033883;28;20029;-71
2023/12/23 06:37:44;;;;;;;158.05;149.70;;;11.30;99.90;;;;;;5034051;28;20044;-72
2023/12/23 06:40:11;;;;;;;195.77;184.90;;;11.30;99.90;;;;;;5033606;28;20461;-72
2023/12/23 06:42:37;;;;;;;236.07;223.02;;;11.30;99.90;;;;;;5014658;28;20046;-72
2023/12/23 06:45:04;;;;;;;276.35;250.80;;;11.30;99.90;;;;;;5012492;28;20402;-71
2023/12/23 06:47:30;;;;;;;231.30;218.65;;;11.20;99.90;;;;;;5031936;28;20050;-71
2023/12/23 06:49:56;;;;;;;200.48;189.63;;;11.30;99.90;;;;;;5032121;28;20037;-71
2023/12/23 06:52:22;;;;;;;181.48;171.32;;;11.20;99.90;;;;;;5033701;28;20389;-71
2023/12/23 06:54:48;;;;;;;171.98;162.80;;;11.30;99.90;;;;;;5033866;28;20026;-72
2023/12/23 06:57:14;;;;;;;181.93;172.25;;;11.20;99.90;;;;;;5032075;28;20041;-70
2023/12/23 06:59:44;;;;;;;201.32;186.35;;;11.20;99.90;;;;;;5033283;28;20029;-71
2023/12/23 07:02:11;;;;;;;165.03;156.53;;;11.30;99.90;;;;;;5032155;28;20037;-71
2023/12/23 07:04:37;;;;;;;191.50;180.90;;;11.20;99.90;;;;;;5033574;28;20048;-68
2023/12/23 07:07:03;;;;;;;191.63;181.40;;;11.20;99.90;;;;;;5031808;28;20037;-69
2023/12/23 07:09:29;;;;;;;153.50;145.15;;;11.30;99.90;;;;;;5033162;28;20025;-69
2023/12/23 07:11:55;;;;;;;190.80;180.73;;;11.30;99.90;;;;;;5032889;28;20034;-69
2023/12/23 07:14:21;;;;;;;191.73;181.68;;;11.30;99.90;;;;;;5048108;28;20060;-69
2023/12/23 07:16:47;;;;;;;120.40;113.95;;;11.20;99.90;;;;;;5030576;28;20034;-69
2023/12/23 07:19:14;;;;;;;193.48;183.07;;;11.30;99.90;;;;;;5033088;28;20076;-69
2023/12/23 07:21:40;;;;;;;146.15;138.27;;;11.30;99.90;;;;;;5029696;28;20057;-68
2023/12/23 07:24:06;;;;;;;270.77;249.00;;;11.40;99.90;;;;;;5032224;28;20033;-69
2023/12/23 07:26:34;;;;;;;144.18;136.40;;;11.40;99.90;;;;;;5032262;28;20386;-70
2023/12/23 07:29:02;;;;;;;185.73;175.68;;;11.40;99.90;;;;;;5031646;28;20395;-69
2023/12/23 07:31:32;;;;;;;176.23;167.10;;;11.40;99.90;;;;;;5031981;28;20490;-70
2023/12/23 07:34:02;;;;;;;182.32;172.75;;;11.40;99.90;;;;;;5032996;28;20033;-70
2023/12/23 07:36:29;;;;;;;155.80;147.48;;;11.40;99.90;;;;;;5015358;28;20029;-69
2023/12/23 07:38:55;;;;;;;155.30;147.27;;;11.40;99.90;;;;;;5014464;28;20029;-69
2023/12/23 07:41:21;;;;;;;163.40;154.68;;;11.20;99.90;;;;;;5032515;28;20036;-70
2023/12/23 07:43:47;;;;;;;167.60;158.82;;;11.20;99.90;;;;;;5031095;28;20037;-69
2023/12/23 07:46:13;;;;;;;160.98;152.23;;;11.20;99.90;;;;;;5030382;28;20045;-69
2023/12/23 07:48:39;;;;;;;117.38;111.03;;;11.20;99.90;;;;;;5032560;28;20037;-68
2023/12/23 07:51:09;;;;;;;150.52;142.43;;;11.20;99.90;;;;;;5015280;28;20111;-69
2023/12/23 07:53:35;;;;;;;222.65;211.02;;;11.20;99.90;;;;;;5029909;28;20033;-70
2023/12/23 07:56:01;;;;;;;140.63;133.07;;;11.20;99.90;;;;;;5010956;28;20045;-70
2023/12/23 07:58:27;;;;;;;150.45;142.55;;;11.20;99.90;;;;;;5019269;28;20041;-69
2023/12/23 08:00:54;;;;;;;131.70;124.68;;;11.20;99.90;;;;;;5021235;28;20037;-73
2023/12/23 08:03:20;;;;;;;159.80;151.50;;;11.20;99.90;;;;;;5001231;28;20038;-73
2023/12/23 08:05:46;;;;;;;202.75;172.23;;;11.20;99.90;;;;;;5027025;28;20034;-72
2023/12/23 08:08:13;;;;;;;173.45;164.15;;;11.20;99.90;;;;;;5027560;28;20048;-71
2023/12/23 08:10:39;;;;;;;236.90;224.52;;;11.40;99.90;;;;;;5021971;28;20040;-74
2023/12/23 08:13:06;;;;;;;207.52;196.80;;;11.50;99.90;;;;;;5013015;28;20042;-74
2023/12/23 08:15:32;;;;;;;145.18;137.52;;;11.40;99.90;;;;;;5029333;28;20033;-74
2023/12/23 08:17:58;;;;;;;95.28;90.25;;;11.40;99.90;;;;;;5031556;28;20473;-74
2023/12/23 08:20:24;;;;;;;107.32;101.72;;;11.30;99.90;;;;;;5029316;28;20060;-74
2023/12/23 08:22:51;;;;;;;111.88;105.93;;;11.30;99.90;;;;;;5030077;28;20033;-73
2023/12/23 08:25:18;;;;;;;94.78;89.90;;;11.40;99.90;;;;;;5030472;28;20072;-74
2023/12/23 08:27:44;;;;;;;80.20;75.88;;;11.40;99.90;;;;;;5030022;28;20378;-74
2023/12/23 08:30:11;;;;;;;91.45;86.63;;;11.40;99.90;;;;;;5029828;28;20040;-73
2023/12/23 08:32:37;;;;;;;91.38;86.70;;;11.40;99.90;;;;;;5030398;28;20034;-74
2023/12/23 08:35:03;;;;;;;87.07;82.63;;;11.40;99.90;;;;;;5030150;28;20465;-74
2023/12/23 08:37:29;;;;;;;92.43;87.38;;;11.40;99.90;;;;;;5030443;28;20041;-74
2023/12/23 08:39:55;;;;;;;126.40;119.68;;;11.40;99.90;;;;;;5029694;28;20382;-74
2023/12/23 08:42:22;;;;;;;104.75;99.25;;;11.40;99.90;;;;;;5028973;28;20045;-74
2023/12/23 08:44:48;;;;;;;106.75;101.07;;;11.40;99.90;;;;;;5032159;28;20025;-74
2023/12/23 08:47:14;;;;;;;122.50;116.13;;;11.40;99.90;;;;;;5029123;28;20037;-74
2023/12/23 08:49:40;;;;;;;116.55;110.43;;;11.40;99.90;;;;;;5031807;28;20022;-74
2023/12/23 08:52:06;;;;;;;113.20;106.85;;;11.30;99.90;;;;;;5030101;28;20033;-73
2023/12/23 08:54:32;;;;;;;110.03;104.30;;;11.40;99.90;;;;;;5013874;28;20643;-73
2023/12/23 08:56:59;;;;;;;132.48;125.60;;;11.40;99.90;;;;;;5044922;28;20036;-74
2023/12/23 08:59:25;;;;;;;97.93;92.97;;;11.40;99.90;;;;;;5040865;28;20500;-74
2023/12/23 09:01:51;;;;;;;100.35;95.10;;;11.40;99.90;;;;;;5038661;28;20041;-73
2023/12/23 09:04:19;;;;;;;108.90;103.05;;;11.40;99.90;;;;;;5040164;28;20438;-73
2023/12/23 09:06:46;;;;;;;134.10;127.32;;;11.60;99.90;;;;;;5040560;28;20044;-73
2023/12/23 09:09:12;;;;;;;150.82;143.13;;;11.50;99.90;;;;;;5032981;28;20363;-73
2023/12/23 09:11:42;;;;;;;139.52;132.25;;;11.50;99.90;;;;;;5029852;28;20037;-73
2023/12/23 09:14:09;;;;;;;140.27;132.90;;;11.60;99.90;;;;;;5030018;28;20034;-73
2023/12/23 09:16:36;;;;;;;111.60;105.88;;;11.60;99.90;;;;;;5030392;28;20394;-74
2023/12/23 09:19:03;;;;;;;147.40;139.85;;;11.60;99.90;;;;;;5038222;28;20583;-73
2023/12/23 09:21:29;;;;;;;143.85;136.57;;;11.60;99.90;;;;;;5029586;28;20033;-73
2023/12/23 09:23:55;;;;;;;149.65;141.88;;;11.70;99.90;;;;;;5030309;28;20033;-74
2023/12/23 09:26:24;;;;;;;144.13;136.57;;;11.80;99.90;;;;;;5029157;28;20033;-74
2023/12/23 09:28:53;;;;;;;87.38;82.53;;;11.80;99.90;;;;;;5031467;28;20065;-75
2023/12/23 09:31:19;;;;;;;114.20;108.07;;;11.80;99.90;;;;;;5029459;28;20040;-74
2023/12/23 09:33:45;;;;;;;100.53;95.20;;;11.90;99.90;;;;;;5031449;28;20038;-73
2023/12/23 09:36:11;;;;;;;202.38;191.75;;;11.90;99.90;;;;;;5029718;28;20463;-73
2023/12/23 09:38:37;;;;;;;204.68;194.25;;;11.80;99.90;;;;;;5051014;28;20036;-73
2023/12/23 09:41:04;;;;;;;239.13;226.60;;;11.90;99.90;;;;;;5041226;28;20037;-73
2023/12/23 09:43:30;;;;;;;297.27;280.92;;;11.90;99.90;;;;;;5033837;28;20032;-74
2023/12/23 09:45:56;;;;;;;215.00;203.93;;;11.90;99.90;;;;;;5039160;28;20038;-74
2023/12/23 09:48:23;;;;;;;93.70;88.93;;;11.90;99.90;;;;;;5033680;28;20037;-73
2023/12/23 09:50:49;;;;;;;98.43;93.22;;;11.90;99.90;;;;;;5033547;28;20036;-74
2023/12/23 09:53:15;;;;;;;86.35;82.03;;;11.90;99.90;;;;;;5034469;28;20037;-73
2023/12/23 09:55:41;;;;;;;85.90;81.45;;;11.90;99.90;;;;;;5032512;28;20048;-73
2023/12/23 09:58:07;;;;;;;92.75;87.97;;;11.90;99.90;;;;;;5033261;28;20030;-73
2023/12/23 10:00:33;;;;;;;92.40;87.60;;;11.80;99.90;;;;;;5033493;28;20060;-74
2023/12/23 10:02:59;;;;;;;109.63;104.07;;;11.80;99.90;;;;;;5033440;28;20030;-73
2023/12/23 10:05:32;;;;;;;137.50;130.35;;;11.80;99.90;;;;;;5033966;28;20033;-73
2023/12/23 10:07:58;;;;;;;86.18;81.82;;;11.80;99.90;;;;;;5033114;28;20045;-73
2023/12/23 10:10:30;;;;;;;84.70;80.30;;;11.80;99.90;;;;;;5007271;28;20041;-74
2023/12/23 10:12:56;;;;;;;87.38;82.85;;;11.80;99.90;;;;;;5032244;28;20022;-74
2023/12/23 10:15:22;;;;;;;92.40;87.50;;;11.90;99.90;;;;;;5031902;28;20048;-74
2023/12/23 10:17:49;;;;;;;83.95;79.80;;;11.90;99.90;;;;;;5028882;28;20040;-74
2023/12/23 10:20:18;;;;;;;101.35;96.18;;;11.90;99.90;;;;;;5046109;28;20038;-73
2023/12/23 10:22:44;;;;;;;130.98;124.10;;;11.90;99.90;;;;;;5032729;28;20068;-73
2023/12/23 10:25:14;;;;;;;123.93;117.57;;;11.90;99.90;;;;;;5030904;28;20041;-74
2023/12/23 10:27:40;;;;;;;175.60;166.73;;;11.80;99.90;;;;;;5030948;28;20622;-73
2023/12/23 10:30:11;;;;;;;174.15;165.10;;;11.90;99.90;;;;;;5033161;28;20581;-73
2023/12/23 10:32:38;;;;;;;196.13;186.00;;;11.90;99.90;;;;;;5019660;28;20026;-73
2023/12/23 10:35:06;;;;;;;129.48;122.57;;;11.90;99.90;;;;;;5032041;28;20030;-74
2023/12/23 10:37:33;;;;;;;97.55;92.43;;;12.00;99.90;;;;;;5031899;28;20040;-74
2023/12/23 10:40:16;;;;;;;97.18;92.18;;;12.00;99.90;;;;;;5033588;28;20025;-74
2023/12/23 10:42:43;;;;;;;107.80;102.15;;;12.00;99.90;;;;;;5020897;28;20030;-73
2023/12/23 10:45:10;;;;;;;129.88;122.95;;;12.00;99.90;;;;;;5030819;28;20037;-73
2023/12/23 10:47:36;;;;;;;90.15;85.72;;;12.00;99.90;;;;;;5032911;28;20049;-71
2023/12/23 10:50:02;;;;;;;105.97;100.45;;;12.00;99.90;;;;;;5043946;28;20408;-71
2023/12/23 10:52:28;;;;;;;90.47;85.78;;;12.00;99.90;;;;;;5037846;28;20040;-71
2023/12/23 10:54:54;;;;;;;81.22;76.80;;;11.90;99.90;;;;;;5032015;28;20022;-71
2023/12/23 10:57:23;;;;;;;93.90;89.00;;;11.90;99.90;;;;;;5037922;28;20037;-71
2023/12/23 10:59:50;;;;;;;139.85;128.88;;;12.00;99.90;;;;;;5037549;28;20032;-71
2023/12/23 11:02:19;;;;;;;111.30;105.60;;;12.00;99.90;;;;;;5031421;28;20109;-72
2023/12/23 11:04:48;;;;;;;107.55;102.03;;;12.10;99.90;;;;;;5032092;28;20033;-71
2023/12/23 11:07:15;;;;;;;84.57;80.07;;;12.00;99.90;;;;;;5030919;28;20394;-71
2023/12/23 11:09:42;;;;;;;84.97;80.43;;;12.00;99.90;;;;;;5032324;28;20047;-71
2023/12/23 11:12:08;;;;;;;86.40;81.75;;;12.00;99.90;;;;;;5032916;28;20041;-71
2023/12/23 11:14:36;;;;;;;94.55;89.80;;;12.10;99.90;;;;;;5033133;28;20026;-71
2023/12/23 11:17:02;;;;;;;92.80;87.95;;;12.20;99.90;;;;;;5031119;28;20041;-71
2023/12/23 11:19:28;;;;;;;90.28;85.53;;;12.20;99.90;;;;;;5021894;28;20037;-72
2023/12/23 11:22:36;;;;;;;98.78;93.68;;;12.10;99.90;;;;;;5020072;28;20060;-71
2023/12/23 11:25:02;;;;;;;94.45;89.32;;;12.10;99.90;;;;;;4985629;28;20030;-71
2023/12/23 11:27:36;;;;;;;89.40;84.78;;;12.10;99.90;;;;;;4974937;28;20057;-71
2023/12/23 11:30:06;;;;;;;102.38;97.38;;;12.10;99.90;;;;;;4968754;28;20041;-71
2023/12/23 11:32:36;;;;;;;129.13;122.65;;;12.00;99.90;;;;;;4984412;28;20038;-71
2023/12/23 11:35:04;;;;;;;99.18;94.07;;;12.00;99.90;;;;;;4961422;28;20503;-71
2023/12/23 11:38:00;;;;;;;105.63;100.20;;;12.00;99.90;;;;;;4970164;28;20082;-72
2023/12/23 11:40:29;;;;;;;110.82;105.18;;;12.00;99.90;;;;;;4959456;28;20387;-71
2023/12/23 11:42:56;;;;;;;98.93;94.03;;;12.00;99.90;;;;;;4965895;28;20046;-71
2023/12/23 11:45:22;;;;;;;82.45;78.40;;;12.00;99.90;;;;;;4981705;28;20056;-71
2023/12/23 11:47:49;;;;;;;95.10;90.32;;;12.10;99.90;;;;;;4963877;28;20058;-71
2023/12/23 11:50:16;;;;;;;199.38;189.18;;;12.10;99.90;;;;;;4975393;28;20050;-73
2023/12/23 11:52:42;;;;;;;92.15;87.40;;;12.10;99.90;;;;;;4989436;28;20035;-76
2023/12/23 11:55:08;;;;;;;84.68;80.30;;;12.00;99.90;;;;;;4958299;28;20522;-76
2023/12/23 11:57:34;;;;;;;87.78;83.35;;;12.00;99.90;;;;;;4974657;28;20050;-74
2023/12/23 12:00:03;;;;;;;131.23;124.68;;;12.00;99.90;;;;;;5000400;28;20037;-74
2023/12/23 12:02:29;;;;;;;139.45;132.52;;;12.00;99.90;;;;;;5029488;28;20050;-74
2023/12/23 12:04:55;;;;;;;107.28;101.75;;;12.00;99.90;;;;;;5030629;28;20029;-74
2023/12/23 12:07:22;;;;;;;123.80;117.13;;;12.00;99.90;;;;;;5028537;28;20381;-74
2023/12/23 12:09:49;;;;;;;138.48;131.07;;;12.00;99.90;;;;;;5030763;28;20025;-74
2023/12/23 12:12:15;;;;;;;116.65;109.90;;;12.00;99.90;;;;;;5030170;28;20021;-74